createdAt,value
2022-09-14T00:01:44.272Z,15.77
2022-09-14T00:04:14.867Z,15.82
2022-09-14T00:06:43.849Z,15.84
2022-09-14T00:09:16.313Z,15.84
2022-09-14T00:11:46.051Z,15.87
2022-09-14T00:14:14.392Z,15.82
2022-09-14T00:16:43.407Z,15.78
2022-09-14T00:19:18.681Z,15.78
2022-09-14T00:21:47.007Z,15.72
2022-09-14T00:24:15.190Z,15.72
2022-09-14T00:26:43.552Z,15.77
2022-09-14T00:29:13.128Z,15.74
2022-09-14T00:31:41.880Z,15.72
2022-09-14T00:34:14.245Z,15.75
2022-09-14T00:36:46.490Z,15.76
2022-09-14T00:39:15.540Z,15.76
2022-09-14T00:41:46.014Z,15.74
2022-09-14T00:44:47.183Z,15.67
2022-09-14T00:47:18.592Z,15.60
2022-09-14T00:49:46.827Z,15.51
2022-09-14T00:52:19.064Z,15.49
2022-09-14T00:54:50.135Z,15.43
2022-09-14T00:57:19.995Z,15.40
2022-09-14T00:59:51.309Z,15.42
2022-09-14T01:02:23.141Z,15.49
2022-09-14T01:04:52.468Z,15.45
2022-09-14T01:07:31.647Z,15.48
2022-09-14T01:10:09.010Z,15.52
2022-09-14T01:12:48.295Z,15.38
2022-09-14T01:15:26.037Z,15.24
2022-09-14T01:18:02.074Z,15.26
2022-09-14T01:20:36.634Z,15.22
2022-09-14T01:23:11.993Z,15.18
2022-09-14T01:26:24.260Z,15.18
2022-09-14T01:28:58.493Z,15.09
2022-09-14T01:31:32.273Z,15.07
2022-09-14T01:34:10.828Z,15.00
2022-09-14T01:36:43.059Z,14.93
2022-09-14T01:39:12.474Z,14.89
2022-09-14T01:41:42.737Z,14.87
2022-09-14T01:44:16.612Z,14.82
2022-09-14T01:46:48.898Z,14.83
2022-09-14T01:49:21.781Z,14.73
2022-09-14T01:51:53.213Z,14.69
2022-09-14T01:54:27.849Z,14.64
2022-09-14T01:57:01.331Z,14.65
2022-09-14T01:59:35.170Z,14.62
2022-09-14T02:02:08.920Z,14.58
2022-09-14T02:04:44.104Z,14.54
2022-09-14T02:07:12.804Z,14.51
2022-09-14T02:09:41.514Z,14.50
2022-09-14T02:12:10.024Z,14.53
2022-09-14T02:14:39.567Z,14.45
2022-09-14T02:17:08.380Z,14.45
2022-09-14T02:19:42.536Z,14.43
2022-09-14T02:22:10.606Z,14.47
2022-09-14T02:24:38.682Z,14.57
2022-09-14T02:27:08.184Z,14.53
2022-09-14T02:29:37.125Z,14.47
2022-09-14T02:32:16.517Z,14.50
2022-09-14T02:34:54.607Z,14.67
2022-09-14T02:37:29.280Z,14.79
2022-09-14T02:40:05.981Z,14.75
2022-09-14T02:42:41.434Z,14.71
2022-09-14T02:45:19.753Z,14.68
2022-09-14T02:47:56.442Z,14.59
2022-09-14T02:50:32.176Z,14.55
2022-09-14T02:53:06.314Z,14.57
2022-09-14T02:55:38.599Z,14.48
2022-09-14T02:58:09.015Z,14.45
2022-09-14T03:00:40.400Z,14.34
2022-09-14T03:03:11.695Z,14.23
2022-09-14T03:05:39.916Z,14.24
2022-09-14T03:08:08.856Z,14.14
2022-09-14T03:10:37.370Z,14.02
2022-09-14T03:13:05.605Z,13.94
2022-09-14T03:15:33.688Z,13.92
2022-09-14T03:18:01.854Z,13.87
2022-09-14T03:20:34.379Z,13.86
2022-09-14T03:23:03.610Z,13.88
2022-09-14T03:25:31.683Z,13.90
2022-09-14T03:28:01.167Z,13.90
2022-09-14T03:30:29.692Z,13.83
2022-09-14T03:32:59.121Z,13.77
2022-09-14T03:35:28.667Z,13.73
2022-09-14T03:37:59.183Z,13.68
2022-09-14T03:40:28.328Z,13.63
2022-09-14T03:42:56.576Z,13.61
2022-09-14T03:45:24.768Z,13.57
2022-09-14T03:47:52.797Z,13.56
2022-09-14T03:50:21.192Z,13.56
2022-09-14T03:52:49.335Z,13.54
2022-09-14T03:55:19.303Z,13.57
2022-09-14T03:57:47.453Z,13.56
2022-09-14T04:00:16.147Z,13.56
2022-09-14T04:02:45.551Z,13.53
2022-09-14T04:05:13.988Z,13.51
2022-09-14T04:07:42.180Z,13.50
2022-09-14T04:10:11.008Z,13.53
2022-09-14T04:12:40.950Z,13.54
2022-09-14T04:15:10.146Z,13.58
2022-09-14T04:17:38.466Z,13.54
2022-09-14T04:20:09.739Z,13.55
2022-09-14T04:22:37.925Z,13.66
2022-09-14T04:25:06.751Z,13.65
2022-09-14T04:27:34.851Z,13.76
2022-09-14T04:30:04.573Z,13.75
2022-09-14T04:32:34.554Z,13.70
2022-09-14T04:35:02.947Z,13.68
2022-09-14T04:37:33.081Z,13.66
2022-09-14T04:40:01.701Z,13.66
2022-09-14T04:42:31.596Z,13.61
2022-09-14T04:44:59.642Z,13.67
2022-09-14T04:47:30.131Z,13.74
2022-09-14T04:49:58.293Z,13.94
2022-09-14T04:52:26.360Z,13.99
2022-09-14T04:54:54.424Z,13.97
2022-09-14T04:57:22.611Z,14.20
2022-09-14T04:59:50.651Z,14.46
2022-09-14T05:02:18.795Z,14.47
2022-09-14T05:04:48.226Z,14.46
2022-09-14T05:07:17.876Z,14.51
2022-09-14T05:09:45.928Z,14.46
2022-09-14T05:12:14.027Z,14.44
2022-09-14T05:14:42.132Z,14.54
2022-09-14T05:17:11.273Z,14.55
2022-09-14T05:19:39.307Z,14.50
2022-09-14T05:22:08.792Z,14.66
2022-09-14T05:24:36.782Z,14.80
2022-09-14T05:27:05.161Z,14.84
2022-09-14T05:29:33.243Z,14.90
2022-09-14T05:32:01.291Z,15.03
2022-09-14T05:34:29.279Z,14.98
2022-09-14T05:36:57.449Z,15.04
2022-09-14T05:39:27.497Z,15.13
2022-09-14T05:41:55.525Z,15.17
2022-09-14T05:44:23.712Z,15.42
2022-09-14T05:46:51.828Z,15.48
2022-09-14T05:49:19.987Z,15.59
2022-09-14T05:51:48.023Z,15.55
2022-09-14T05:54:16.026Z,15.70
2022-09-14T05:56:45.470Z,15.86
2022-09-14T05:59:13.581Z,15.86
2022-09-14T06:01:41.673Z,15.90
2022-09-14T06:04:12.390Z,15.90
2022-09-14T06:06:40.635Z,15.89
2022-09-14T06:09:08.653Z,15.95
2022-09-14T06:11:37.677Z,15.97
2022-09-14T06:14:07.527Z,16.00
2022-09-14T06:16:35.997Z,16.13
2022-09-14T06:19:04.006Z,16.18
2022-09-14T06:21:35.797Z,16.24
2022-09-14T06:24:04.208Z,16.22
2022-09-14T06:26:32.310Z,16.36
2022-09-14T06:29:00.819Z,16.55
2022-09-14T06:31:30.259Z,16.57
2022-09-14T06:33:58.389Z,16.69
2022-09-14T06:36:28.543Z,16.71
2022-09-14T06:38:59.865Z,16.74
2022-09-14T06:41:31.349Z,16.83
2022-09-14T06:44:01.890Z,16.99
2022-09-14T06:46:33.803Z,17.07
2022-09-14T06:49:04.080Z,17.19
2022-09-14T06:51:34.602Z,17.29
2022-09-14T06:54:03.817Z,17.58
2022-09-14T06:56:33.702Z,17.68
2022-09-14T06:59:01.849Z,17.76
2022-09-14T07:01:31.625Z,17.76
2022-09-14T07:04:01.572Z,17.80
2022-09-14T07:06:32.505Z,17.88
2022-09-14T07:09:04.168Z,18.11
2022-09-14T07:11:32.955Z,18.18
2022-09-14T07:14:02.007Z,18.31
2022-09-14T07:16:33.357Z,18.40
2022-09-14T07:19:05.278Z,18.56
2022-09-14T07:21:34.464Z,18.62
2022-09-14T07:24:03.332Z,18.69
2022-09-14T07:26:34.081Z,18.91
2022-09-14T07:29:05.172Z,19.08
2022-09-14T07:31:37.313Z,19.21
2022-09-14T07:34:06.572Z,19.23
2022-09-14T07:36:36.185Z,19.32
2022-09-14T07:39:07.063Z,19.36
2022-09-14T07:41:36.111Z,19.43
2022-09-14T07:44:05.529Z,19.64
2022-09-14T07:46:39.745Z,19.70
2022-09-14T07:49:09.679Z,19.68
2022-09-14T07:51:38.136Z,19.79
2022-09-14T07:54:07.730Z,19.99
2022-09-14T07:56:36.578Z,19.93
2022-09-14T08:01:55.283Z,20.20
2022-09-14T08:04:23.610Z,20.43
2022-09-14T08:06:51.612Z,20.53
2022-09-14T08:09:19.591Z,20.65
2022-09-14T08:11:47.583Z,20.78
2022-09-14T08:14:15.703Z,21.07
2022-09-14T08:16:43.922Z,21.01
2022-09-14T08:19:18.621Z,21.09
2022-09-14T08:21:47.654Z,21.28
2022-09-14T08:24:18.106Z,21.21
2022-09-14T08:26:46.555Z,21.17
2022-09-14T08:29:14.777Z,21.21
2022-09-14T08:31:44.423Z,21.31
2022-09-14T08:34:15.025Z,21.44
2022-09-14T08:36:43.956Z,21.66
2022-09-14T08:39:14.378Z,21.80
2022-09-14T08:41:52.509Z,21.83
2022-09-14T08:44:25.186Z,22.06
2022-09-14T08:46:59.394Z,22.26
2022-09-14T08:49:41.089Z,22.39
2022-09-14T08:52:18.801Z,22.57
2022-09-14T08:54:51.363Z,22.77
2022-09-14T08:57:23.115Z,22.84
2022-09-14T08:59:57.837Z,22.96
2022-09-14T09:02:40.199Z,23.12
2022-09-14T09:05:25.196Z,23.24
2022-09-14T09:08:00.133Z,23.26
2022-09-14T09:10:28.947Z,23.31
2022-09-14T09:13:00.743Z,23.42
2022-09-14T09:15:32.224Z,23.53
2022-09-14T09:18:03.744Z,23.56
2022-09-14T09:20:36.195Z,23.74
2022-09-14T09:23:13.130Z,23.81
2022-09-14T09:26:09.291Z,23.97
2022-09-14T09:28:43.383Z,23.96
2022-09-14T09:31:14.943Z,24.16
2022-09-14T09:33:43.902Z,24.28
2022-09-14T09:36:16.021Z,24.32
2022-09-14T09:38:44.121Z,24.35
2022-09-14T09:41:17.215Z,24.35
2022-09-14T09:44:00.344Z,24.52
2022-09-14T09:46:30.151Z,24.64
2022-09-14T09:48:58.371Z,24.63
2022-09-14T09:51:34.176Z,24.81
2022-09-14T09:54:08.962Z,25.04
2022-09-14T09:56:40.461Z,25.08
2022-09-14T09:59:24.856Z,25.07
2022-09-14T10:01:56.010Z,25.07
2022-09-14T10:04:30.135Z,25.02
2022-09-14T10:06:59.875Z,25.05
2022-09-14T10:09:29.512Z,25.09
2022-09-14T10:12:00.202Z,25.07
2022-09-14T10:14:32.384Z,25.23
2022-09-14T10:17:08.885Z,25.36
2022-09-14T10:19:38.145Z,25.25
2022-09-14T10:22:25.664Z,25.37
2022-09-14T10:24:57.892Z,25.53
2022-09-14T10:27:39.814Z,25.63
2022-09-14T10:30:14.725Z,25.62
2022-09-14T10:32:46.924Z,25.81
2022-09-14T10:35:16.348Z,25.84
2022-09-14T10:38:00.366Z,25.82
2022-09-14T10:40:37.046Z,25.80
2022-09-14T10:43:12.604Z,25.93
2022-09-14T10:45:46.515Z,26.03
2022-09-14T10:48:37.528Z,26.08
2022-09-14T10:51:27.139Z,26.14
2022-09-14T10:54:03.428Z,26.10
2022-09-14T10:56:49.889Z,26.11
2022-09-14T10:59:32.237Z,26.14
2022-09-14T11:02:34.038Z,26.11
2022-09-14T11:05:13.003Z,26.11
2022-09-14T11:07:53.593Z,26.13
2022-09-14T11:10:29.510Z,26.10
2022-09-14T11:13:21.565Z,26.21
2022-09-14T11:15:59.986Z,26.16
2022-09-14T11:18:34.834Z,26.23
2022-09-14T11:21:12.046Z,26.36
2022-09-14T11:23:50.434Z,26.38
2022-09-14T11:26:26.728Z,26.39
2022-09-14T11:28:59.906Z,26.43
2022-09-14T11:31:32.714Z,26.47
2022-09-14T11:34:12.376Z,26.50
2022-09-14T11:36:45.861Z,26.59
2022-09-14T11:39:20.720Z,26.72
2022-09-14T11:41:54.541Z,26.87
2022-09-14T11:44:26.006Z,26.92
2022-09-14T11:47:00.967Z,26.87
2022-09-14T11:49:35.524Z,26.80
2022-09-14T11:52:10.135Z,26.85
2022-09-14T11:54:46.088Z,26.92
2022-09-14T11:57:20.607Z,26.93
2022-09-14T11:59:54.125Z,26.82
2022-09-14T12:03:02.476Z,26.96
2022-09-14T12:05:36.405Z,27.07
2022-09-14T12:08:25.713Z,27.14
2022-09-14T12:11:31.961Z,27.11
2022-09-14T12:14:33.268Z,27.22
2022-09-14T12:17:28.644Z,27.15
2022-09-14T12:20:00.015Z,27.21
2022-09-14T12:22:32.852Z,27.14
2022-09-14T12:25:16.171Z,27.21
2022-09-14T12:27:45.448Z,27.35
2022-09-14T12:30:57.448Z,27.41
2022-09-14T12:34:16.051Z,27.57
2022-09-14T12:37:28.704Z,27.45
2022-09-14T12:40:34.344Z,27.50
2022-09-14T12:43:51.129Z,27.65
2022-09-14T12:46:50.620Z,27.76
2022-09-14T12:49:30.141Z,27.91
2022-09-14T12:52:04.793Z,27.80
2022-09-14T12:54:50.637Z,27.65
2022-09-14T12:57:30.403Z,27.64
2022-09-14T13:00:06.455Z,27.74
2022-09-14T13:02:57.217Z,27.71
2022-09-14T13:05:28.009Z,27.83
2022-09-14T13:07:57.422Z,27.89
2022-09-14T13:10:31.528Z,27.90
2022-09-14T13:13:02.598Z,27.88
2022-09-14T13:15:36.544Z,27.76
2022-09-14T13:18:08.373Z,27.84
2022-09-14T13:20:37.080Z,27.89
2022-09-14T13:23:20.352Z,28.00
2022-09-14T13:25:48.479Z,28.10
2022-09-14T13:28:18.788Z,28.05
2022-09-14T13:30:56.046Z,28.02
2022-09-14T13:33:26.005Z,28.01
2022-09-14T13:35:56.487Z,27.94
2022-09-14T13:38:26.218Z,28.13
2022-09-14T13:40:56.931Z,28.07
2022-09-14T13:43:25.301Z,28.07
2022-09-14T13:45:53.777Z,28.03
2022-09-14T13:48:22.768Z,28.10
2022-09-14T13:50:53.731Z,28.21
2022-09-14T13:53:42.858Z,28.19
2022-09-14T13:56:19.806Z,28.19
2022-09-14T13:58:48.959Z,28.16
2022-09-14T14:01:26.914Z,28.07
2022-09-14T14:03:55.722Z,28.04
2022-09-14T14:06:27.842Z,28.18
2022-09-14T14:09:02.565Z,28.22
2022-09-14T14:11:35.315Z,28.16
2022-09-14T14:14:15.329Z,28.17
2022-09-14T14:16:44.551Z,28.18
2022-09-14T14:19:28.642Z,28.20
2022-09-14T14:22:19.236Z,28.11
2022-09-14T14:25:12.471Z,28.03
2022-09-14T14:27:41.340Z,28.05
2022-09-14T14:30:15.672Z,28.06
2022-09-14T14:32:44.016Z,28.12
2022-09-14T14:35:17.925Z,28.07
2022-09-14T14:37:47.906Z,28.06
2022-09-14T14:40:17.291Z,28.02
2022-09-14T14:42:46.214Z,28.07
2022-09-14T14:45:19.381Z,28.12
2022-09-14T14:47:48.502Z,28.12
2022-09-14T14:50:17.513Z,28.02
2022-09-14T14:52:45.566Z,28.03
2022-09-14T14:55:15.240Z,28.03
2022-09-14T14:57:43.266Z,28.05
2022-09-14T15:00:16.025Z,28.01
2022-09-14T15:02:44.306Z,28.01
2022-09-14T15:05:12.831Z,27.99
2022-09-14T15:07:41.780Z,27.92
2022-09-14T15:10:15.249Z,27.82
2022-09-14T15:12:43.919Z,27.89
2022-09-14T15:15:15.304Z,27.90
2022-09-14T15:17:43.791Z,27.79
2022-09-14T15:20:13.260Z,27.73
2022-09-14T15:22:42.389Z,27.68
2022-09-14T15:25:12.928Z,27.64
2022-09-14T15:27:43.085Z,27.62
2022-09-14T15:30:13.388Z,27.57
2022-09-14T15:32:42.290Z,27.55
2022-09-14T15:35:16.264Z,27.48
2022-09-14T15:37:44.297Z,27.41
2022-09-14T15:40:12.822Z,27.35
2022-09-14T15:42:42.468Z,27.30
2022-09-14T15:45:11.299Z,27.28
2022-09-14T15:47:39.375Z,27.25
2022-09-14T15:50:07.987Z,27.22
2022-09-14T15:52:37.654Z,27.20
2022-09-14T15:55:08.011Z,27.15
2022-09-14T15:57:36.421Z,27.08
2022-09-14T16:00:08.615Z,27.01
2022-09-14T16:02:36.669Z,26.95
2022-09-14T16:05:04.966Z,26.96
2022-09-14T16:07:33.083Z,26.91
2022-09-14T16:10:01.061Z,26.85
2022-09-14T16:12:29.261Z,26.79
2022-09-14T16:14:57.262Z,26.80
2022-09-14T16:17:26.964Z,26.69
2022-09-14T16:19:55.156Z,26.61
2022-09-14T16:22:25.297Z,26.56
2022-09-14T16:24:53.334Z,26.52
2022-09-14T16:27:21.889Z,26.43
2022-09-14T16:29:49.924Z,26.35
2022-09-14T16:32:17.901Z,26.29
2022-09-14T16:34:47.380Z,26.20
2022-09-14T16:37:15.379Z,26.11
2022-09-14T16:39:43.496Z,26.06
2022-09-14T16:42:11.628Z,25.97
2022-09-14T16:44:39.739Z,25.85
2022-09-14T16:47:08.021Z,25.73
2022-09-14T16:49:37.270Z,25.61
2022-09-14T16:52:06.863Z,25.49
2022-09-14T16:54:34.885Z,25.37
2022-09-14T16:57:02.912Z,25.23
2022-09-14T16:59:30.985Z,25.13
2022-09-14T17:01:59.107Z,25.02
2022-09-14T17:04:27.249Z,24.93
2022-09-14T17:06:56.196Z,24.84
2022-09-14T17:09:27.522Z,24.78
2022-09-14T17:11:56.776Z,24.77
2022-09-14T17:14:28.514Z,24.73
2022-09-14T17:16:56.540Z,24.74
2022-09-14T17:19:24.855Z,24.65
2022-09-14T17:21:53.485Z,24.57
2022-09-14T17:24:22.470Z,24.51
2022-09-14T17:26:51.996Z,24.41
2022-09-14T17:29:21.089Z,24.32
2022-09-14T17:31:50.802Z,24.30
2022-09-14T17:34:19.017Z,24.20
2022-09-14T17:36:47.389Z,24.14
2022-09-14T17:39:16.540Z,24.08
2022-09-14T17:41:45.045Z,24.00
2022-09-14T17:44:16.250Z,23.92
2022-09-14T17:46:51.992Z,23.86
2022-09-14T17:49:21.945Z,23.79
2022-09-14T17:51:50.894Z,23.76
2022-09-14T17:54:19.662Z,23.72
2022-09-14T17:56:47.807Z,23.65
2022-09-14T17:59:20.176Z,23.55
2022-09-14T18:01:49.064Z,23.48
2022-09-14T18:04:17.709Z,23.40
2022-09-14T18:06:49.668Z,23.31
2022-09-14T18:09:19.684Z,23.26
2022-09-14T18:11:48.627Z,23.21
2022-09-14T18:14:18.300Z,23.13
2022-09-14T18:16:46.480Z,23.08
2022-09-14T18:19:15.187Z,23.02
2022-09-14T18:21:45.128Z,22.95
2022-09-14T18:24:15.795Z,22.90
2022-09-14T18:26:46.322Z,22.83
2022-09-14T18:29:16.456Z,22.77
2022-09-14T18:31:46.184Z,22.67
2022-09-14T18:34:14.646Z,22.60
2022-09-14T18:36:42.734Z,22.55
2022-09-14T18:39:11.438Z,22.49
2022-09-14T18:41:39.799Z,22.49
2022-09-14T18:44:08.265Z,22.42
2022-09-14T18:46:36.390Z,22.37
2022-09-14T18:49:06.486Z,22.32
2022-09-14T18:51:34.598Z,22.31
2022-09-14T18:54:06.408Z,22.26
2022-09-14T18:56:36.276Z,22.19
2022-09-14T18:59:06.247Z,22.16
2022-09-14T19:01:35.366Z,22.14
2022-09-14T19:04:08.003Z,22.11
2022-09-14T19:06:37.736Z,22.13
2022-09-14T19:09:07.104Z,22.15
2022-09-14T19:11:36.547Z,22.11
2022-09-14T19:14:09.426Z,22.09
2022-09-14T19:16:39.245Z,22.08
2022-09-14T19:19:10.981Z,22.04
2022-09-14T19:21:39.159Z,22.03
2022-09-14T19:24:09.846Z,21.96
2022-09-14T19:26:45.295Z,21.94
2022-09-14T19:29:16.535Z,21.86
2022-09-14T19:31:44.955Z,21.81
2022-09-14T19:34:14.472Z,21.78
2022-09-14T19:36:43.862Z,21.78
2022-09-14T19:39:12.157Z,21.78
2022-09-14T19:41:40.588Z,21.81
2022-09-14T19:44:09.193Z,21.82
2022-09-14T19:46:40.136Z,21.79
2022-09-14T19:49:09.263Z,21.81
2022-09-14T19:51:39.074Z,21.81
2022-09-14T19:54:07.158Z,21.77
2022-09-14T19:56:35.205Z,21.65
2022-09-14T19:59:05.103Z,21.56
2022-09-14T20:01:35.808Z,21.50
2022-09-14T20:04:05.645Z,21.43
2022-09-14T20:06:35.968Z,21.32
2022-09-14T20:09:08.907Z,21.25
2022-09-14T20:11:38.681Z,21.24
2022-09-14T20:14:09.145Z,21.21
2022-09-14T20:16:39.446Z,21.13
2022-09-14T20:19:09.488Z,21.02
2022-09-14T20:21:38.168Z,20.94
2022-09-14T20:24:16.261Z,20.87
2022-09-14T20:26:46.082Z,20.93
2022-09-14T20:29:15.272Z,20.82
2022-09-14T20:31:43.928Z,20.76
2022-09-14T20:34:12.200Z,20.70
2022-09-14T20:36:41.145Z,20.60
2022-09-14T20:39:10.791Z,20.56
2022-09-14T20:41:38.994Z,20.53
2022-09-14T20:44:08.087Z,20.49
2022-09-14T20:46:39.391Z,20.43
2022-09-14T20:49:11.375Z,20.39
2022-09-14T20:51:40.386Z,20.35
2022-09-14T20:54:11.756Z,20.31
2022-09-14T20:56:40.053Z,20.26
2022-09-14T20:59:11.142Z,20.26
2022-09-14T21:01:41.293Z,20.30
2022-09-14T21:04:11.385Z,20.26
2022-09-14T21:06:41.519Z,20.23
2022-09-14T21:09:12.361Z,20.23
2022-09-14T21:11:40.966Z,20.20
2022-09-14T21:14:09.874Z,20.19
2022-09-14T21:16:43.115Z,20.16
2022-09-14T21:19:14.737Z,20.11
2022-09-14T21:21:43.921Z,20.07
2022-09-14T21:24:14.218Z,20.09
2022-09-14T21:26:44.062Z,20.07
2022-09-14T21:29:15.814Z,20.04
2022-09-14T21:31:44.203Z,20.00
2022-09-14T21:36:43.091Z,19.92
2022-09-14T21:39:19.291Z,19.86
2022-09-14T21:41:49.086Z,19.79
2022-09-14T21:44:17.580Z,19.76
2022-09-14T21:46:45.727Z,19.75
2022-09-14T21:49:16.164Z,19.90
2022-09-14T21:51:44.565Z,19.85
2022-09-14T21:54:14.057Z,19.74
2022-09-14T21:56:45.478Z,19.72
2022-09-14T21:59:15.822Z,19.64
2022-09-14T22:01:44.297Z,19.47
2022-09-14T22:04:15.713Z,19.41
2022-09-14T22:06:45.742Z,19.34
2022-09-14T22:09:14.857Z,19.29
2022-09-14T22:11:44.489Z,19.25
2022-09-14T22:14:15.328Z,19.22
2022-09-14T22:16:43.734Z,19.18
2022-09-14T22:19:15.689Z,19.20
2022-09-14T22:21:44.266Z,19.23
2022-09-14T22:24:14.129Z,19.24
2022-09-14T22:26:43.734Z,19.19
2022-09-14T22:29:12.946Z,19.08
2022-09-14T22:31:42.149Z,18.94
2022-09-14T22:34:10.765Z,18.87
2022-09-14T22:36:40.301Z,18.79
2022-09-14T22:39:10.052Z,18.76
2022-09-14T22:41:38.896Z,18.64
2022-09-14T22:44:08.810Z,18.73
2022-09-14T22:46:37.424Z,18.67
2022-09-14T22:49:05.578Z,18.65
2022-09-14T22:51:34.488Z,18.58
2022-09-14T22:54:03.167Z,18.53
2022-09-14T22:56:35.375Z,18.50
2022-09-14T22:59:06.213Z,18.53
2022-09-14T23:01:38.425Z,18.54
2022-09-14T23:04:08.417Z,18.45
2022-09-14T23:06:38.450Z,18.41
2022-09-14T23:09:07.465Z,18.41
2022-09-14T23:11:35.852Z,18.39
2022-09-14T23:14:03.927Z,18.38
2022-09-14T23:16:32.394Z,18.41
2022-09-14T23:19:03.749Z,18.35
2022-09-14T23:21:32.737Z,18.27
2022-09-14T23:24:02.892Z,18.27
2022-09-14T23:26:32.002Z,18.24
2022-09-14T23:29:01.998Z,18.21
2022-09-14T23:31:32.706Z,18.20
2022-09-14T23:34:03.846Z,18.17
2022-09-14T23:36:32.889Z,18.11
2022-09-14T23:39:01.570Z,18.05
2022-09-14T23:41:30.118Z,18.01
2022-09-14T23:43:58.219Z,18.01
2022-09-14T23:46:26.396Z,17.98
2022-09-14T23:48:54.580Z,17.90
2022-09-14T23:51:24.204Z,17.85
2022-09-14T23:53:52.162Z,17.81
2022-09-14T23:56:20.131Z,17.79
2022-09-14T23:58:48.186Z,17.78
